M/y Australis — ZGAH4 — position and weather

sailwx.info

Track history (hours):
 
Tides and Currents Weather Stations Pressure Air Temp Water Temp Dewpoint Dewpoint Depression Visibility Wind Speed Wind Dir Waves Ship Positions

M/y Australis

Last reported at 2016-Aug-23 18:33 UTC. Time now 2016-Aug-24 16:15 UTC.
Position N 43°29' E 007°05'.

Length 48 m; draft 2.5 m.

Type: Pleasure craft. MMSI: 319016800.

Date/timePositionNaut miles runAvg speedWind from/ knotsBaromVisibWave heightAir tempDewpointWater temp
2016-Aug-23 18:33N 43°29' E 007°05'4 3.1
2016-Aug-23 17:16N 43°33' E 007°06'0 0.0
2016-Aug-23 16:28N 43°33' E 007°06'0 0.0
2016-Aug-23 15:28N 43°33' E 007°06'0 0.0
2016-Aug-23 14:28N 43°33' E 007°06'0 0.0
2016-Aug-23 13:28N 43°33' E 007°06'0 0.0
2016-Aug-23 12:28N 43°33' E 007°06'0 0.0
2016-Aug-23 11:22N 43°33' E 007°06'0 0.0
2016-Aug-23 10:28N 43°33' E 007°06'0 0.0
2016-Aug-23 09:28N 43°33' E 007°06'0 0.0
2016-Aug-23 08:28N 43°33' E 007°06'0 0.0
2016-Aug-23 07:28N 43°33' E 007°06'0 0.0
2016-Aug-23 06:28N 43°33' E 007°06'0 0.0
2016-Aug-23 05:28N 43°33' E 007°06'0 0.0
2016-Aug-23 04:28N 43°33' E 007°06'0 0.0
2016-Aug-23 03:22N 43°33' E 007°06'0 0.0
2016-Aug-23 02:28N 43°33' E 007°06'0 0.0
2016-Aug-23 01:28N 43°33' E 007°06'0 0.0
2016-Aug-23 00:28N 43°33' E 007°06'0 0.0
2016-Aug-22 23:28N 43°33' E 007°06'0 0.0
2016-Aug-22 22:28N 43°33' E 007°06'0 0.0
2016-Aug-22 21:22N 43°33' E 007°06'0 0.0
2016-Aug-22 20:28N 43°33' E 007°06'0 0.0
2016-Aug-22 19:28N 43°33' E 007°06'0 0.0
2016-Aug-22 18:28N 43°33' E 007°06'0 0.0
2016-Aug-22 17:28N 43°33' E 007°06'0 0.0
2016-Aug-22 16:28N 43°33' E 007°06'0 0.0
2016-Aug-22 15:28N 43°33' E 007°06'0 0.0
2016-Aug-22 14:22N 43°33' E 007°06'0 0.0
2016-Aug-22 13:28N 43°33' E 007°06'0 0.0
2016-Aug-22 12:16N 43°33' E 007°06'0 0.0
2016-Aug-22 11:28N 43°33' E 007°06'0 0.0
2016-Aug-22 10:22N 43°33' E 007°06'0 0.0
2016-Aug-22 09:22N 43°33' E 007°06'0 0.0
2016-Aug-22 08:28N 43°33' E 007°06'0 0.0
2016-Aug-22 07:28N 43°33' E 007°06'0 0.0
2016-Aug-22 06:22N 43°33' E 007°06'0 0.0
2016-Aug-22 05:28N 43°33' E 007°06'0 0.0
2016-Aug-22 04:22N 43°33' E 007°06'0 0.0
2016-Aug-22 03:28N 43°33' E 007°06'0 0.0
2016-Aug-22 02:28N 43°33' E 007°06'0 0.0
2016-Aug-22 01:28N 43°33' E 007°06'0 0.0
2016-Aug-22 00:28N 43°33' E 007°06'0 0.0
2016-Aug-21 23:28N 43°33' E 007°06'0 0.0
2016-Aug-21 22:28N 43°33' E 007°06'0 0.0
2016-Aug-21 21:28N 43°33' E 007°06'0 0.0
2016-Aug-21 20:28N 43°33' E 007°06'0 0.0
2016-Aug-21 19:28N 43°33' E 007°06'0 0.0
2016-Aug-21 18:28N 43°33' E 007°06'0 0.0
2016-Aug-21 17:28N 43°33' E 007°06'0 0.0
2016-Aug-21 16:22N 43°33' E 007°06'0 0.0
2016-Aug-21 15:31N 43°33' E 007°06'2 2.0
2016-Aug-21 14:30N 43°35' E 007°08'0 0.0
2016-Aug-21 13:30N 43°35' E 007°08'0 0.0
2016-Aug-21 12:30N 43°35' E 007°08'4 4.7
2016-Aug-21 11:33N 43°39' E 007°10'5 4.5
2016-Aug-21 10:33N 43°34' E 007°09'10 4.0
2016-Aug-21 08:04N 43°31' E 006°57'0 0.0
2016-Aug-21 06:28N 43°31' E 006°57'0 0.0
2016-Aug-21 00:16N 43°31' E 006°57'0 0.0
2016-Aug-20 23:22N 43°31' E 006°57'0 0.0
2016-Aug-20 21:10N 43°31' E 006°57'3 3.9
2016-Aug-20 20:27N 43°30' E 007°00'1010.6
2016-Aug-20 19:32N 43°34' E 007°12'1211.5
2016-Aug-20 18:31N 43°41' E 007°25'4 0.6
2016-Aug-20 11:30N 43°45' E 007°27'1 0.3
2016-Aug-20 08:06N 43°44' E 007°26'0 0.0
2016-Aug-20 07:24N 43°44' E 007°26'0 0.0
2016-Aug-20 06:18N 43°44' E 007°26'0 0.0
2016-Aug-20 05:30N 43°44' E 007°26'0 0.0
2016-Aug-20 04:30N 43°44' E 007°26'3 0.2
2016-Aug-19 11:33N 43°42' E 007°22'1 0.4
2016-Aug-19 08:18N 43°42' E 007°20'0 0.0
2016-Aug-19 03:30N 43°42' E 007°20'0 0.0
2016-Aug-19 02:06N 43°42' E 007°20'0 0.0
2016-Aug-19 01:12N 43°42' E 007°20'0 0.0
2016-Aug-19 00:30N 43°42' E 007°20'0 0.0
2016-Aug-18 23:12N 43°42' E 007°20'0 0.1
2016-Aug-18 22:33N 43°42' E 007°20'7 7.2
2016-Aug-18 21:32N 43°36' E 007°15'12 9.9
2016-Aug-18 20:18N 43°29' E 007°00'3 2.6
2016-Aug-18 19:06N 43°31' E 006°57'0 0.0
2016-Aug-18 18:30N 43°31' E 006°57'0 0.0
2016-Aug-18 17:24N 43°31' E 006°56'0 0.1
2016-Aug-18 16:30N 43°31' E 006°57'0 0.0
2016-Aug-18 13:30N 43°31' E 006°57'0 0.0
2016-Aug-18 12:06N 43°31' E 006°57'0 0.0
2016-Aug-18 11:06N 43°31' E 006°56'0 0.0
2016-Aug-18 09:18N 43°31' E 006°57'0 0.0
2016-Aug-18 06:30N 43°31' E 006°57'0 0.0
2016-Aug-18 05:30N 43°31' E 006°57'0 0.0
2016-Aug-18 03:12N 43°31' E 006°57'0 0.0
2016-Aug-18 01:30N 43°31' E 006°57'0 0.0
2016-Aug-17 21:24N 43°31' E 006°57'0 0.0
2016-Aug-17 17:30N 43°31' E 006°57'0 0.0
2016-Aug-17 16:18N 43°31' E 006°57'0 0.0
2016-Aug-17 12:30N 43°31' E 006°57'0 0.0
2016-Aug-17 11:27N 43°31' E 006°57'0 0.0
2016-Aug-17 08:30N 43°31' E 006°57'0 0.0
2016-Aug-17 04:24N 43°31' E 006°57'0 0.0
2016-Aug-17 01:09N 43°31' E 006°57'0 0.0
2016-Aug-17 00:30N 43°31' E 006°57'0 0.0
2016-Aug-16 23:30N 43°31' E 006°57'0 0.0
2016-Aug-16 22:30N 43°31' E 006°57'0 0.0
2016-Aug-16 21:27N 43°31' E 006°57'0 0.0
2016-Aug-16 19:30N 43°31' E 006°57'0 0.0
2016-Aug-16 17:30N 43°31' E 006°57'0 0.0
2016-Aug-16 15:24N 43°31' E 006°57'0 0.1
2016-Aug-16 14:33N 43°31' E 006°57'0 0.0
2016-Aug-16 12:12N 43°31' E 006°57'1 0.7
2016-Aug-16 11:26N 43°31' E 006°57'1 0.3
2016-Aug-16 07:31N 43°29' E 006°57'7011.2
2016-Aug-16 01:17N 44°00' E 008°24'912.0
2016-Aug-16 00:33N 44°06' E 008°34'1211.6
2016-Aug-15 23:33N 44°13' E 008°46'1111.0
2016-Aug-15 22:34N 44°20' E 008°58'4 3.5
2016-Aug-15 21:29N 44°24' E 008°56'0 0.0
2016-Aug-15 20:29N 44°24' E 008°56'0 0.0
2016-Aug-15 19:32N 44°24' E 008°56'0 0.0
2016-Aug-15 18:29N 44°24' E 008°56'0 0.0
2016-Aug-15 17:29N 44°24' E 008°56'0 0.0
2016-Aug-15 16:29N 44°24' E 008°56'0 0.0
2016-Aug-15 15:32N 44°24' E 008°56'0 0.0
2016-Aug-15 14:32N 44°24' E 008°56'0 0.0
2016-Aug-15 13:32N 44°24' E 008°56'0 0.0
2016-Aug-15 12:32N 44°24' E 008°56'0 0.0
2016-Aug-15 11:23N 44°24' E 008°56'0 0.0
2016-Aug-15 10:32N 44°24' E 008°56'0 0.0
2016-Aug-15 09:32N 44°24' E 008°56'0 0.0
2016-Aug-15 08:29N 44°24' E 008°56'0 0.0
2016-Aug-15 07:32N 44°24' E 008°56'0 0.0
2016-Aug-15 06:26N 44°24' E 008°56'0 0.0
2016-Aug-15 04:29N 44°24' E 008°56'0 0.0
2016-Aug-15 03:29N 44°24' E 008°56'0 0.0
2016-Aug-15 02:32N 44°24' E 008°56'0 0.0
2016-Aug-15 01:32N 44°24' E 008°56'0 0.0
2016-Aug-15 00:32N 44°24' E 008°56'0 0.0
2016-Aug-14 23:32N 44°24' E 008°56'0 0.0
2016-Aug-14 22:32N 44°24' E 008°56'0 0.0
2016-Aug-14 21:32N 44°24' E 008°56'0 0.0
2016-Aug-14 20:26N 44°24' E 008°56'0 0.0
2016-Aug-14 19:32N 44°24' E 008°56'0 0.0
2016-Aug-14 18:32N 44°24' E 008°56'0 0.0
2016-Aug-14 17:32N 44°24' E 008°56'0 0.0
2016-Aug-14 16:29N 44°24' E 008°56'0 0.0
2016-Aug-14 15:32N 44°24' E 008°56'0 0.0
2016-Aug-14 14:32N 44°24' E 008°56'0 0.0
2016-Aug-14 13:32N 44°24' E 008°56'0 0.0
2016-Aug-14 12:32N 44°24' E 008°56'0 0.0
2016-Aug-14 11:32N 44°24' E 008°56'0 0.0
2016-Aug-14 10:32N 44°24' E 008°56'0 0.0
2016-Aug-14 09:32N 44°24' E 008°56'0 0.0
2016-Aug-14 08:32N 44°24' E 008°56'0 0.0
2016-Aug-14 07:32N 44°24' E 008°56'0 0.0
2016-Aug-14 06:32N 44°24' E 008°56'0 0.0
2016-Aug-14 04:32N 44°24' E 008°56'0 0.0
2016-Aug-14 03:32N 44°24' E 008°56'0 0.0
2016-Aug-14 02:32N 44°24' E 008°56'0 0.0
2016-Aug-14 01:26N 44°24' E 008°56'0 0.0
2016-Aug-14 00:29N 44°24' E 008°56'0 0.0
2016-Aug-13 23:29N 44°24' E 008°56'0 0.0
2016-Aug-13 22:32N 44°24' E 008°56'0 0.0
2016-Aug-13 21:32N 44°24' E 008°56'0 0.0
2016-Aug-13 20:32N 44°24' E 008°56'0 0.0
2016-Aug-13 19:29N 44°24' E 008°56'  
Track history (hours):
 
Tides and Currents Weather Stations Pressure Air Temp Water Temp Dewpoint Dewpoint Depression Visibility Wind Speed Wind Dir Waves Ship Positions

M/y Australis

Last reported at 2016-Aug-23 18:33 UTC. Time now 2016-Aug-24 16:15 UTC.
Position N 43°29' E 007°05'.

Length 48 m; draft 2.5 m.

Type: Pleasure craft. MMSI: 319016800.

Date/timePositionNaut miles runAvg speedWind from/ knotsBaromVisibWave heightAir tempDewpointWater temp
2016-Aug-23 18:33N 43°29' E 007°05'4 3.1
2016-Aug-23 17:16N 43°33' E 007°06'0 0.0
2016-Aug-23 16:28N 43°33' E 007°06'0 0.0
2016-Aug-23 15:28N 43°33' E 007°06'0 0.0
2016-Aug-23 14:28N 43°33' E 007°06'0 0.0
2016-Aug-23 13:28N 43°33' E 007°06'0 0.0
2016-Aug-23 12:28N 43°33' E 007°06'0 0.0
2016-Aug-23 11:22N 43°33' E 007°06'0 0.0
2016-Aug-23 10:28N 43°33' E 007°06'0 0.0
2016-Aug-23 09:28N 43°33' E 007°06'0 0.0
2016-Aug-23 08:28N 43°33' E 007°06'0 0.0
2016-Aug-23 07:28N 43°33' E 007°06'0 0.0
2016-Aug-23 06:28N 43°33' E 007°06'0 0.0
2016-Aug-23 05:28N 43°33' E 007°06'0 0.0
2016-Aug-23 04:28N 43°33' E 007°06'0 0.0
2016-Aug-23 03:22N 43°33' E 007°06'0 0.0
2016-Aug-23 02:28N 43°33' E 007°06'0 0.0
2016-Aug-23 01:28N 43°33' E 007°06'0 0.0
2016-Aug-23 00:28N 43°33' E 007°06'0 0.0
2016-Aug-22 23:28N 43°33' E 007°06'0 0.0
2016-Aug-22 22:28N 43°33' E 007°06'0 0.0
2016-Aug-22 21:22N 43°33' E 007°06'0 0.0
2016-Aug-22 20:28N 43°33' E 007°06'0 0.0
2016-Aug-22 19:28N 43°33' E 007°06'0 0.0
2016-Aug-22 18:28N 43°33' E 007°06'0 0.0
2016-Aug-22 17:28N 43°33' E 007°06'0 0.0
2016-Aug-22 16:28N 43°33' E 007°06'0 0.0
2016-Aug-22 15:28N 43°33' E 007°06'0 0.0
2016-Aug-22 14:22N 43°33' E 007°06'0 0.0
2016-Aug-22 13:28N 43°33' E 007°06'0 0.0
2016-Aug-22 12:16N 43°33' E 007°06'0 0.0
2016-Aug-22 11:28N 43°33' E 007°06'0 0.0
2016-Aug-22 10:22N 43°33' E 007°06'0 0.0
2016-Aug-22 09:22N 43°33' E 007°06'0 0.0
2016-Aug-22 08:28N 43°33' E 007°06'0 0.0
2016-Aug-22 07:28N 43°33' E 007°06'0 0.0
2016-Aug-22 06:22N 43°33' E 007°06'0 0.0
2016-Aug-22 05:28N 43°33' E 007°06'0 0.0
2016-Aug-22 04:22N 43°33' E 007°06'0 0.0
2016-Aug-22 03:28N 43°33' E 007°06'0 0.0
2016-Aug-22 02:28N 43°33' E 007°06'0 0.0
2016-Aug-22 01:28N 43°33' E 007°06'0 0.0
2016-Aug-22 00:28N 43°33' E 007°06'0 0.0
2016-Aug-21 23:28N 43°33' E 007°06'0 0.0
2016-Aug-21 22:28N 43°33' E 007°06'0 0.0
2016-Aug-21 21:28N 43°33' E 007°06'0 0.0
2016-Aug-21 20:28N 43°33' E 007°06'0 0.0
2016-Aug-21 19:28N 43°33' E 007°06'0 0.0
2016-Aug-21 18:28N 43°33' E 007°06'0 0.0
2016-Aug-21 17:28N 43°33' E 007°06'0 0.0
2016-Aug-21 16:22N 43°33' E 007°06'0 0.0
2016-Aug-21 15:31N 43°33' E 007°06'2 2.0
2016-Aug-21 14:30N 43°35' E 007°08'0 0.0
2016-Aug-21 13:30N 43°35' E 007°08'0 0.0
2016-Aug-21 12:30N 43°35' E 007°08'4 4.7
2016-Aug-21 11:33N 43°39' E 007°10'5 4.5
2016-Aug-21 10:33N 43°34' E 007°09'10 4.0
2016-Aug-21 08:04N 43°31' E 006°57'0 0.0
2016-Aug-21 06:28N 43°31' E 006°57'0 0.0
2016-Aug-21 00:16N 43°31' E 006°57'0 0.0
2016-Aug-20 23:22N 43°31' E 006°57'0 0.0
2016-Aug-20 21:10N 43°31' E 006°57'3 3.9
2016-Aug-20 20:27N 43°30' E 007°00'1010.6
2016-Aug-20 19:32N 43°34' E 007°12'1211.5
2016-Aug-20 18:31N 43°41' E 007°25'4 0.6
2016-Aug-20 11:30N 43°45' E 007°27'1 0.3
2016-Aug-20 08:06N 43°44' E 007°26'0 0.0
2016-Aug-20 07:24N 43°44' E 007°26'0 0.0
2016-Aug-20 06:18N 43°44' E 007°26'0 0.0
2016-Aug-20 05:30N 43°44' E 007°26'0 0.0
2016-Aug-20 04:30N 43°44' E 007°26'3 0.2
2016-Aug-19 11:33N 43°42' E 007°22'1 0.4
2016-Aug-19 08:18N 43°42' E 007°20'0 0.0
2016-Aug-19 03:30N 43°42' E 007°20'0 0.0
2016-Aug-19 02:06N 43°42' E 007°20'0 0.0
2016-Aug-19 01:12N 43°42' E 007°20'0 0.0
2016-Aug-19 00:30N 43°42' E 007°20'0 0.0
2016-Aug-18 23:12N 43°42' E 007°20'0 0.1
2016-Aug-18 22:33N 43°42' E 007°20'7 7.2
2016-Aug-18 21:32N 43°36' E 007°15'12 9.9
2016-Aug-18 20:18N 43°29' E 007°00'3 2.6
2016-Aug-18 19:06N 43°31' E 006°57'0 0.0
2016-Aug-18 18:30N 43°31' E 006°57'0 0.0
2016-Aug-18 17:24N 43°31' E 006°56'0 0.1
2016-Aug-18 16:30N 43°31' E 006°57'0 0.0
2016-Aug-18 13:30N 43°31' E 006°57'0 0.0
2016-Aug-18 12:06N 43°31' E 006°57'0 0.0
2016-Aug-18 11:06N 43°31' E 006°56'0 0.0
2016-Aug-18 09:18N 43°31' E 006°57'0 0.0
2016-Aug-18 06:30N 43°31' E 006°57'0 0.0
2016-Aug-18 05:30N 43°31' E 006°57'0 0.0
2016-Aug-18 03:12N 43°31' E 006°57'0 0.0
2016-Aug-18 01:30N 43°31' E 006°57'0 0.0
2016-Aug-17 21:24N 43°31' E 006°57'0 0.0
2016-Aug-17 17:30N 43°31' E 006°57'0 0.0
2016-Aug-17 16:18N 43°31' E 006°57'0 0.0
2016-Aug-17 12:30N 43°31' E 006°57'0 0.0
2016-Aug-17 11:27N 43°31' E 006°57'0 0.0
2016-Aug-17 08:30N 43°31' E 006°57'0 0.0
2016-Aug-17 04:24N 43°31' E 006°57'0 0.0
2016-Aug-17 01:09N 43°31' E 006°57'0 0.0
2016-Aug-17 00:30N 43°31' E 006°57'0 0.0
2016-Aug-16 23:30N 43°31' E 006°57'0 0.0
2016-Aug-16 22:30N 43°31' E 006°57'0 0.0
2016-Aug-16 21:27N 43°31' E 006°57'0 0.0
2016-Aug-16 19:30N 43°31' E 006°57'0 0.0
2016-Aug-16 17:30N 43°31' E 006°57'0 0.0
2016-Aug-16 15:24N 43°31' E 006°57'0 0.1
2016-Aug-16 14:33N 43°31' E 006°57'0 0.0
2016-Aug-16 12:12N 43°31' E 006°57'1 0.7
2016-Aug-16 11:26N 43°31' E 006°57'1 0.3
2016-Aug-16 07:31N 43°29' E 006°57'7011.2
2016-Aug-16 01:17N 44°00' E 008°24'912.0
2016-Aug-16 00:33N 44°06' E 008°34'1211.6
2016-Aug-15 23:33N 44°13' E 008°46'1111.0
2016-Aug-15 22:34N 44°20' E 008°58'4 3.5
2016-Aug-15 21:29N 44°24' E 008°56'0 0.0
2016-Aug-15 20:29N 44°24' E 008°56'0 0.0
2016-Aug-15 19:32N 44°24' E 008°56'0 0.0
2016-Aug-15 18:29N 44°24' E 008°56'0 0.0
2016-Aug-15 17:29N 44°24' E 008°56'0 0.0
2016-Aug-15 16:29N 44°24' E 008°56'0 0.0
2016-Aug-15 15:32N 44°24' E 008°56'0 0.0
2016-Aug-15 14:32N 44°24' E 008°56'0 0.0
2016-Aug-15 13:32N 44°24' E 008°56'0 0.0
2016-Aug-15 12:32N 44°24' E 008°56'0 0.0
2016-Aug-15 11:23N 44°24' E 008°56'0 0.0
2016-Aug-15 10:32N 44°24' E 008°56'0 0.0
2016-Aug-15 09:32N 44°24' E 008°56'0 0.0
2016-Aug-15 08:29N 44°24' E 008°56'0 0.0
2016-Aug-15 07:32N 44°24' E 008°56'0 0.0
2016-Aug-15 06:26N 44°24' E 008°56'0 0.0
2016-Aug-15 04:29N 44°24' E 008°56'0 0.0
2016-Aug-15 03:29N 44°24' E 008°56'0 0.0
2016-Aug-15 02:32N 44°24' E 008°56'0 0.0
2016-Aug-15 01:32N 44°24' E 008°56'0 0.0
2016-Aug-15 00:32N 44°24' E 008°56'0 0.0
2016-Aug-14 23:32N 44°24' E 008°56'0 0.0
2016-Aug-14 22:32N 44°24' E 008°56'0 0.0
2016-Aug-14 21:32N 44°24' E 008°56'0 0.0
2016-Aug-14 20:26N 44°24' E 008°56'0 0.0
2016-Aug-14 19:32N 44°24' E 008°56'0 0.0
2016-Aug-14 18:32N 44°24' E 008°56'0 0.0
2016-Aug-14 17:32N 44°24' E 008°56'0 0.0
2016-Aug-14 16:29N 44°24' E 008°56'0 0.0
2016-Aug-14 15:32N 44°24' E 008°56'0 0.0
2016-Aug-14 14:32N 44°24' E 008°56'0 0.0
2016-Aug-14 13:32N 44°24' E 008°56'0 0.0
2016-Aug-14 12:32N 44°24' E 008°56'0 0.0
2016-Aug-14 11:32N 44°24' E 008°56'0 0.0
2016-Aug-14 10:32N 44°24' E 008°56'0 0.0
2016-Aug-14 09:32N 44°24' E 008°56'0 0.0
2016-Aug-14 08:32N 44°24' E 008°56'0 0.0
2016-Aug-14 07:32N 44°24' E 008°56'0 0.0
2016-Aug-14 06:32N 44°24' E 008°56'0 0.0
2016-Aug-14 04:32N 44°24' E 008°56'0 0.0
2016-Aug-14 03:32N 44°24' E 008°56'0 0.0
2016-Aug-14 02:32N 44°24' E 008°56'0 0.0
2016-Aug-14 01:26N 44°24' E 008°56'0 0.0
2016-Aug-14 00:29N 44°24' E 008°56'0 0.0
2016-Aug-13 23:29N 44°24' E 008°56'0 0.0
2016-Aug-13 22:32N 44°24' E 008°56'0 0.0
2016-Aug-13 21:32N 44°24' E 008°56'0 0.0
2016-Aug-13 20:32N 44°24' E 008°56'0 0.0
2016-Aug-13 19:29N 44°24' E 008°56'  

Dump ship's entire track history